クェゼリン環礁 の空港の天気 - METARとTAF

バックホルツ陸軍飛行場 ( PKWA / KWA ) - マーシャル諸島 クェゼリン環礁
飛行場実況気象(Metar)
観測時間04/27 17:00 MHT (04/27 05:00 UTC)
風向・風速南東 5m/s
視程10km以上
天気現象
なし
気温29.1℃
湿度71%
気圧1007hPa
METARPKWA 270500Z AUTO 13009KT 10SM CLR 29/23 A2973 RMK AO2 T02910234
過去の天気等 Google飛行場航空写真 Wunderground天気予報

過去48時間のMETAR

飛行場予報(TAF)
発表時間: 4/27 14:25 MHT (4/27 02:25 UTC)
予報対象時間: 27日14時 MHT ~ 28日12時 MHT
風向・風速東南東 7m/s
視程10km以上
天気現象周辺でしゅう雨
少しの雲 雲底高度 460m
全天の4割程度の雲 雲底高度 910m
全天の8割程度の雲 雲底高度 4,570m
PKWA 270225Z 2702/2724 12014KT P6SM VCSH FEW015 SCT030 BKN150